sensor_id;sensor_type;location;lat;lon;timestamp;pressure;altitude;pressure_sealevel;temperature
12918;BMP180;6526;54.312;13.092;2022-09-17T00:02:00;100392.00;;;14.90
12918;BMP180;6526;54.312;13.092;2022-09-17T00:04:27;100397.00;;;15.00
12918;BMP180;6526;54.312;13.092;2022-09-17T00:06:54;100402.00;;;15.00
12918;BMP180;6526;54.312;13.092;2022-09-17T00:09:20;100414.00;;;15.00
12918;BMP180;6526;54.312;13.092;2022-09-17T00:11:46;100405.00;;;15.00
12918;BMP180;6526;54.312;13.092;2022-09-17T00:14:14;100410.00;;;14.90
12918;BMP180;6526;54.312;13.092;2022-09-17T00:16:46;100419.00;;;14.90
12918;BMP180;6526;54.312;13.092;2022-09-17T00:19:19;100392.00;;;14.90
12918;BMP180;6526;54.312;13.092;2022-09-17T00:21:46;100417.00;;;15.00
12918;BMP180;6526;54.312;13.092;2022-09-17T00:24:13;100418.00;;;14.90
12918;BMP180;6526;54.312;13.092;2022-09-17T00:26:40;100420.00;;;14.90
12918;BMP180;6526;54.312;13.092;2022-09-17T00:29:07;100420.00;;;14.90
12918;BMP180;6526;54.312;13.092;2022-09-17T00:31:34;100421.00;;;15.00
12918;BMP180;6526;54.312;13.092;2022-09-17T00:34:01;100423.00;;;14.90
12918;BMP180;6526;54.312;13.092;2022-09-17T00:36:28;100417.00;;;15.00
12918;BMP180;6526;54.312;13.092;2022-09-17T00:38:56;100414.00;;;15.00
12918;BMP180;6526;54.312;13.092;2022-09-17T00:41:27;100422.00;;;14.90
12918;BMP180;6526;54.312;13.092;2022-09-17T00:43:59;100419.00;;;15.00
12918;BMP180;6526;54.312;13.092;2022-09-17T00:46:33;100423.00;;;14.90
12918;BMP180;6526;54.312;13.092;2022-09-17T00:49:05;100416.00;;;14.90
12918;BMP180;6526;54.312;13.092;2022-09-17T00:51:42;100428.00;;;14.90
12918;BMP180;6526;54.312;13.092;2022-09-17T00:54:11;100419.00;;;14.90
12918;BMP180;6526;54.312;13.092;2022-09-17T00:56:39;100427.00;;;14.90
12918;BMP180;6526;54.312;13.092;2022-09-17T00:59:07;100430.00;;;15.00
12918;BMP180;6526;54.312;13.092;2022-09-17T01:01:33;100415.00;;;15.00
12918;BMP180;6526;54.312;13.092;2022-09-17T01:03:59;100422.00;;;15.00
12918;BMP180;6526;54.312;13.092;2022-09-17T01:06:43;100420.00;;;14.90
12918;BMP180;6526;54.312;13.092;2022-09-17T01:14:45;100419.00;;;14.90
12918;BMP180;6526;54.312;13.092;2022-09-17T01:17:50;100412.00;;;14.80
12918;BMP180;6526;54.312;13.092;2022-09-17T01:23:16;100417.00;;;14.90
12918;BMP180;6526;54.312;13.092;2022-09-17T01:31:20;100425.00;;;15.00
12918;BMP180;6526;54.312;13.092;2022-09-17T01:36:56;100421.00;;;15.00
12918;BMP180;6526;54.312;13.092;2022-09-17T01:39:44;100420.00;;;15.00
12918;BMP180;6526;54.312;13.092;2022-09-17T01:47:43;100425.00;;;15.10
12918;BMP180;6526;54.312;13.092;2022-09-17T01:50:19;100418.00;;;15.10
12918;BMP180;6526;54.312;13.092;2022-09-17T01:52:48;100430.00;;;15.20
12918;BMP180;6526;54.312;13.092;2022-09-17T01:55:16;100424.00;;;15.20
12918;BMP180;6526;54.312;13.092;2022-09-17T01:57:56;100423.00;;;15.20
12918;BMP180;6526;54.312;13.092;2022-09-17T02:00:24;100423.00;;;15.20
12918;BMP180;6526;54.312;13.092;2022-09-17T02:03:01;100417.00;;;15.30
12918;BMP180;6526;54.312;13.092;2022-09-17T02:05:41;100417.00;;;15.20
12918;BMP180;6526;54.312;13.092;2022-09-17T02:08:14;100417.00;;;15.20
12918;BMP180;6526;54.312;13.092;2022-09-17T02:10:48;100423.00;;;15.20
12918;BMP180;6526;54.312;13.092;2022-09-17T02:13:25;100417.00;;;15.20
12918;BMP180;6526;54.312;13.092;2022-09-17T02:15:56;100421.00;;;15.20
12918;BMP180;6526;54.312;13.092;2022-09-17T02:18:42;100424.00;;;15.20
12918;BMP180;6526;54.312;13.092;2022-09-17T02:21:21;100424.00;;;15.20
12918;BMP180;6526;54.312;13.092;2022-09-17T02:24:36;100419.00;;;15.20
12918;BMP180;6526;54.312;13.092;2022-09-17T02:27:01;100420.00;;;15.30
12918;BMP180;6526;54.312;13.092;2022-09-17T02:29:37;100420.00;;;15.30
12918;BMP180;6526;54.312;13.092;2022-09-17T02:32:05;100414.00;;;15.20
12918;BMP180;6526;54.312;13.092;2022-09-17T02:34:31;100401.00;;;15.30
12918;BMP180;6526;54.312;13.092;2022-09-17T02:36:57;100415.00;;;15.30
12918;BMP180;6526;54.312;13.092;2022-09-17T02:39:24;100424.00;;;15.30
12918;BMP180;6526;54.312;13.092;2022-09-17T02:42:49;100421.00;;;15.30
12918;BMP180;6526;54.312;13.092;2022-09-17T02:48:18;100423.00;;;15.20
12918;BMP180;6526;54.312;13.092;2022-09-17T02:50:59;100426.00;;;15.30
12918;BMP180;6526;54.312;13.092;2022-09-17T02:57:04;100423.00;;;15.20
12918;BMP180;6526;54.312;13.092;2022-09-17T02:59:42;100429.00;;;15.20
12918;BMP180;6526;54.312;13.092;2022-09-17T03:02:27;100428.00;;;15.20
12918;BMP180;6526;54.312;13.092;2022-09-17T03:04:56;100424.00;;;15.20
12918;BMP180;6526;54.312;13.092;2022-09-17T03:07:23;100423.00;;;15.20
12918;BMP180;6526;54.312;13.092;2022-09-17T03:09:49;100427.00;;;15.20
12918;BMP180;6526;54.312;13.092;2022-09-17T03:12:15;100433.00;;;15.10
12918;BMP180;6526;54.312;13.092;2022-09-17T03:14:42;100427.00;;;15.00
12918;BMP180;6526;54.312;13.092;2022-09-17T03:17:08;100427.00;;;15.00
12918;BMP180;6526;54.312;13.092;2022-09-17T03:19:34;100427.00;;;14.90
12918;BMP180;6526;54.312;13.092;2022-09-17T03:22:00;100430.00;;;14.90
12918;BMP180;6526;54.312;13.092;2022-09-17T03:24:26;100423.00;;;14.90
12918;BMP180;6526;54.312;13.092;2022-09-17T03:26:52;100417.00;;;14.90
12918;BMP180;6526;54.312;13.092;2022-09-17T03:29:18;100426.00;;;14.90
12918;BMP180;6526;54.312;13.092;2022-09-17T03:31:44;100426.00;;;14.90
12918;BMP180;6526;54.312;13.092;2022-09-17T03:34:10;100441.00;;;15.00
12918;BMP180;6526;54.312;13.092;2022-09-17T03:36:36;100435.00;;;15.00
12918;BMP180;6526;54.312;13.092;2022-09-17T03:39:02;100436.00;;;15.00
12918;BMP180;6526;54.312;13.092;2022-09-17T03:41:28;100435.00;;;15.00
12918;BMP180;6526;54.312;13.092;2022-09-17T03:43:54;100435.00;;;15.10
12918;BMP180;6526;54.312;13.092;2022-09-17T03:46:20;100434.00;;;15.10
12918;BMP180;6526;54.312;13.092;2022-09-17T03:48:46;100436.00;;;15.10
12918;BMP180;6526;54.312;13.092;2022-09-17T03:51:12;100425.00;;;15.10
12918;BMP180;6526;54.312;13.092;2022-09-17T03:53:39;100429.00;;;15.10
12918;BMP180;6526;54.312;13.092;2022-09-17T03:56:06;100425.00;;;15.10
12918;BMP180;6526;54.312;13.092;2022-09-17T03:58:33;100434.00;;;15.00
12918;BMP180;6526;54.312;13.092;2022-09-17T04:01:00;100447.00;;;15.00
12918;BMP180;6526;54.312;13.092;2022-09-17T04:03:28;100444.00;;;15.00
12918;BMP180;6526;54.312;13.092;2022-09-17T04:05:54;100435.00;;;14.90
12918;BMP180;6526;54.312;13.092;2022-09-17T04:08:21;100443.00;;;15.00
12918;BMP180;6526;54.312;13.092;2022-09-17T04:10:47;100439.00;;;15.00
12918;BMP180;6526;54.312;13.092;2022-09-17T04:13:14;100448.00;;;15.00
12918;BMP180;6526;54.312;13.092;2022-09-17T04:15:41;100435.00;;;15.00
12918;BMP180;6526;54.312;13.092;2022-09-17T04:18:08;100436.00;;;15.10
12918;BMP180;6526;54.312;13.092;2022-09-17T04:20:34;100438.00;;;15.10
12918;BMP180;6526;54.312;13.092;2022-09-17T04:23:00;100435.00;;;15.20
12918;BMP180;6526;54.312;13.092;2022-09-17T04:25:26;100432.00;;;15.20
12918;BMP180;6526;54.312;13.092;2022-09-17T04:27:52;100435.00;;;15.20
12918;BMP180;6526;54.312;13.092;2022-09-17T04:30:18;100433.00;;;15.20
12918;BMP180;6526;54.312;13.092;2022-09-17T04:32:45;100437.00;;;15.20
12918;BMP180;6526;54.312;13.092;2022-09-17T04:35:11;100442.00;;;15.20
12918;BMP180;6526;54.312;13.092;2022-09-17T04:37:38;100456.00;;;15.30
12918;BMP180;6526;54.312;13.092;2022-09-17T04:40:05;100447.00;;;15.30
12918;BMP180;6526;54.312;13.092;2022-09-17T04:42:31;100457.00;;;15.30
12918;BMP180;6526;54.312;13.092;2022-09-17T04:44:57;100463.00;;;15.30
12918;BMP180;6526;54.312;13.092;2022-09-17T04:47:24;100467.00;;;15.30
12918;BMP180;6526;54.312;13.092;2022-09-17T04:49:50;100468.00;;;15.30
12918;BMP180;6526;54.312;13.092;2022-09-17T04:52:16;100480.00;;;15.20
12918;BMP180;6526;54.312;13.092;2022-09-17T04:54:42;100477.00;;;15.20
12918;BMP180;6526;54.312;13.092;2022-09-17T04:57:08;100479.00;;;15.10
12918;BMP180;6526;54.312;13.092;2022-09-17T04:59:35;100478.00;;;15.00
12918;BMP180;6526;54.312;13.092;2022-09-17T05:02:01;100487.00;;;15.00
12918;BMP180;6526;54.312;13.092;2022-09-17T05:04:27;100493.00;;;14.90
12918;BMP180;6526;54.312;13.092;2022-09-17T05:06:53;100491.00;;;14.90
12918;BMP180;6526;54.312;13.092;2022-09-17T05:09:19;100473.00;;;14.90
12918;BMP180;6526;54.312;13.092;2022-09-17T05:11:45;100476.00;;;14.80
12918;BMP180;6526;54.312;13.092;2022-09-17T05:14:11;100473.00;;;14.70
12918;BMP180;6526;54.312;13.092;2022-09-17T05:16:38;100484.00;;;14.70
12918;BMP180;6526;54.312;13.092;2022-09-17T05:19:04;100483.00;;;14.70
12918;BMP180;6526;54.312;13.092;2022-09-17T05:21:30;100479.00;;;14.70
12918;BMP180;6526;54.312;13.092;2022-09-17T05:23:56;100480.00;;;14.90
12918;BMP180;6526;54.312;13.092;2022-09-17T05:26:23;100496.00;;;14.90
12918;BMP180;6526;54.312;13.092;2022-09-17T05:28:49;100502.00;;;14.90
12918;BMP180;6526;54.312;13.092;2022-09-17T05:31:15;100485.00;;;15.00
12918;BMP180;6526;54.312;13.092;2022-09-17T05:33:41;100487.00;;;15.00
12918;BMP180;6526;54.312;13.092;2022-09-17T05:36:07;100489.00;;;15.00
12918;BMP180;6526;54.312;13.092;2022-09-17T05:38:33;100481.00;;;15.00
12918;BMP180;6526;54.312;13.092;2022-09-17T05:41:03;100490.00;;;15.00
12918;BMP180;6526;54.312;13.092;2022-09-17T05:43:30;100482.00;;;15.00
12918;BMP180;6526;54.312;13.092;2022-09-17T05:46:03;100487.00;;;15.00
12918;BMP180;6526;54.312;13.092;2022-09-17T05:48:30;100484.00;;;15.10
12918;BMP180;6526;54.312;13.092;2022-09-17T05:50:56;100491.00;;;15.20
12918;BMP180;6526;54.312;13.092;2022-09-17T05:53:23;100500.00;;;15.20
12918;BMP180;6526;54.312;13.092;2022-09-17T05:55:49;100494.00;;;15.20
12918;BMP180;6526;54.312;13.092;2022-09-17T05:58:18;100498.00;;;15.30
12918;BMP180;6526;54.312;13.092;2022-09-17T06:00:45;100510.00;;;15.40
12918;BMP180;6526;54.312;13.092;2022-09-17T06:03:14;100502.00;;;15.40
12918;BMP180;6526;54.312;13.092;2022-09-17T06:05:40;100513.00;;;15.40
12918;BMP180;6526;54.312;13.092;2022-09-17T06:08:07;100503.00;;;15.60
12918;BMP180;6526;54.312;13.092;2022-09-17T06:10:37;100501.00;;;15.60
12918;BMP180;6526;54.312;13.092;2022-09-17T06:13:04;100507.00;;;15.60
12918;BMP180;6526;54.312;13.092;2022-09-17T06:15:30;100516.00;;;15.60
12918;BMP180;6526;54.312;13.092;2022-09-17T06:17:56;100506.00;;;15.50
12918;BMP180;6526;54.312;13.092;2022-09-17T06:20:22;100506.00;;;15.50
12918;BMP180;6526;54.312;13.092;2022-09-17T06:22:48;100510.00;;;15.40
12918;BMP180;6526;54.312;13.092;2022-09-17T06:25:14;100518.00;;;15.50
12918;BMP180;6526;54.312;13.092;2022-09-17T06:27:40;100515.00;;;15.60
12918;BMP180;6526;54.312;13.092;2022-09-17T06:30:06;100512.00;;;15.80
12918;BMP180;6526;54.312;13.092;2022-09-17T06:32:33;100520.00;;;15.90
12918;BMP180;6526;54.312;13.092;2022-09-17T06:34:59;100522.00;;;16.10
12918;BMP180;6526;54.312;13.092;2022-09-17T06:37:31;100525.00;;;16.20
12918;BMP180;6526;54.312;13.092;2022-09-17T06:39:57;100531.00;;;16.40
12918;BMP180;6526;54.312;13.092;2022-09-17T06:42:25;100527.00;;;16.40
12918;BMP180;6526;54.312;13.092;2022-09-17T06:44:51;100529.00;;;16.40
12918;BMP180;6526;54.312;13.092;2022-09-17T06:47:17;100541.00;;;16.50
12918;BMP180;6526;54.312;13.092;2022-09-17T06:49:43;100526.00;;;16.70
12918;BMP180;6526;54.312;13.092;2022-09-17T06:52:09;100541.00;;;16.70
12918;BMP180;6526;54.312;13.092;2022-09-17T06:54:36;100537.00;;;17.00
12918;BMP180;6526;54.312;13.092;2022-09-17T06:57:02;100530.00;;;17.20
12918;BMP180;6526;54.312;13.092;2022-09-17T06:59:28;100531.00;;;17.10
12918;BMP180;6526;54.312;13.092;2022-09-17T07:01:54;100521.00;;;17.10
12918;BMP180;6526;54.312;13.092;2022-09-17T07:04:21;100521.00;;;17.30
12918;BMP180;6526;54.312;13.092;2022-09-17T07:06:47;100515.00;;;17.50
12918;BMP180;6526;54.312;13.092;2022-09-17T07:09:13;100521.00;;;17.90
12918;BMP180;6526;54.312;13.092;2022-09-17T07:11:39;100521.00;;;18.20
12918;BMP180;6526;54.312;13.092;2022-09-17T07:14:05;100515.00;;;18.10
12918;BMP180;6526;54.312;13.092;2022-09-17T07:16:34;100520.00;;;18.00
12918;BMP180;6526;54.312;13.092;2022-09-17T07:19:02;100528.00;;;17.80
12918;BMP180;6526;54.312;13.092;2022-09-17T07:21:28;100533.00;;;17.90
12918;BMP180;6526;54.312;13.092;2022-09-17T07:23:54;100532.00;;;17.80
12918;BMP180;6526;54.312;13.092;2022-09-17T07:26:21;100527.00;;;17.90
12918;BMP180;6526;54.312;13.092;2022-09-17T07:28:47;100537.00;;;17.80
12918;BMP180;6526;54.312;13.092;2022-09-17T07:31:13;100538.00;;;18.00
12918;BMP180;6526;54.312;13.092;2022-09-17T07:33:40;100530.00;;;18.10
12918;BMP180;6526;54.312;13.092;2022-09-17T07:36:16;100525.00;;;18.20
12918;BMP180;6526;54.312;13.092;2022-09-17T07:38:45;100527.00;;;18.10
12918;BMP180;6526;54.312;13.092;2022-09-17T07:41:13;100535.00;;;18.10
12918;BMP180;6526;54.312;13.092;2022-09-17T07:43:41;100528.00;;;18.10
12918;BMP180;6526;54.312;13.092;2022-09-17T07:46:14;100521.00;;;17.90
12918;BMP180;6526;54.312;13.092;2022-09-17T07:48:41;100535.00;;;17.80
12918;BMP180;6526;54.312;13.092;2022-09-17T07:51:07;100544.00;;;17.80
12918;BMP180;6526;54.312;13.092;2022-09-17T07:53:33;100539.00;;;17.70
12918;BMP180;6526;54.312;13.092;2022-09-17T07:56:00;100539.00;;;17.70
12918;BMP180;6526;54.312;13.092;2022-09-17T07:58:33;100543.00;;;17.50
12918;BMP180;6526;54.312;13.092;2022-09-17T08:01:06;100549.00;;;17.60
12918;BMP180;6526;54.312;13.092;2022-09-17T08:03:34;100549.00;;;17.70
12918;BMP180;6526;54.312;13.092;2022-09-17T08:06:11;100538.00;;;17.60
12918;BMP180;6526;54.312;13.092;2022-09-17T08:08:38;100541.00;;;17.70
12918;BMP180;6526;54.312;13.092;2022-09-17T08:11:12;100547.00;;;17.60
12918;BMP180;6526;54.312;13.092;2022-09-17T08:13:39;100562.00;;;17.60
12918;BMP180;6526;54.312;13.092;2022-09-17T08:16:08;100552.00;;;17.50
12918;BMP180;6526;54.312;13.092;2022-09-17T08:18:35;100554.00;;;17.50
12918;BMP180;6526;54.312;13.092;2022-09-17T08:21:03;100558.00;;;17.50
12918;BMP180;6526;54.312;13.092;2022-09-17T08:23:30;100560.00;;;17.50
12918;BMP180;6526;54.312;13.092;2022-09-17T08:25:58;100560.00;;;17.60
12918;BMP180;6526;54.312;13.092;2022-09-17T08:28:26;100554.00;;;17.80
12918;BMP180;6526;54.312;13.092;2022-09-17T08:30:53;100557.00;;;17.80
12918;BMP180;6526;54.312;13.092;2022-09-17T08:33:20;100561.00;;;17.70
12918;BMP180;6526;54.312;13.092;2022-09-17T08:35:55;100558.00;;;17.60
12918;BMP180;6526;54.312;13.092;2022-09-17T08:38:29;100557.00;;;17.60
12918;BMP180;6526;54.312;13.092;2022-09-17T08:41:08;100554.00;;;17.50
12918;BMP180;6526;54.312;13.092;2022-09-17T08:46:14;100558.00;;;17.60
12918;BMP180;6526;54.312;13.092;2022-09-17T08:49:00;100561.00;;;17.70
12918;BMP180;6526;54.312;13.092;2022-09-17T08:54:37;100562.00;;;17.80
12918;BMP180;6526;54.312;13.092;2022-09-17T09:00:20;100567.00;;;17.60
12918;BMP180;6526;54.312;13.092;2022-09-17T09:03:11;100569.00;;;17.50
12918;BMP180;6526;54.312;13.092;2022-09-17T09:05:51;100574.00;;;17.30
12918;BMP180;6526;54.312;13.092;2022-09-17T09:10:58;100567.00;;;17.40
12918;BMP180;6526;54.312;13.092;2022-09-17T09:13:35;100577.00;;;17.40
12918;BMP180;6526;54.312;13.092;2022-09-17T09:16:16;100572.00;;;17.30
12918;BMP180;6526;54.312;13.092;2022-09-17T09:18:43;100575.00;;;17.30
12918;BMP180;6526;54.312;13.092;2022-09-17T09:21:15;100572.00;;;17.30
12918;BMP180;6526;54.312;13.092;2022-09-17T09:23:53;100595.00;;;17.40
12918;BMP180;6526;54.312;13.092;2022-09-17T09:26:22;100580.00;;;17.60
12918;BMP180;6526;54.312;13.092;2022-09-17T09:29:04;100587.00;;;17.60
12918;BMP180;6526;54.312;13.092;2022-09-17T09:34:06;100575.00;;;17.70
12918;BMP180;6526;54.312;13.092;2022-09-17T09:36:35;100589.00;;;17.80
12918;BMP180;6526;54.312;13.092;2022-09-17T09:42:03;100582.00;;;17.90
12918;BMP180;6526;54.312;13.092;2022-09-17T09:44:31;100582.00;;;18.00
12918;BMP180;6526;54.312;13.092;2022-09-17T09:53:21;100589.00;;;18.30
12918;BMP180;6526;54.312;13.092;2022-09-17T09:58:37;100580.00;;;18.90
12918;BMP180;6526;54.312;13.092;2022-09-17T10:01:12;100582.00;;;18.90
12918;BMP180;6526;54.312;13.092;2022-09-17T10:03:41;100575.00;;;19.00
12918;BMP180;6526;54.312;13.092;2022-09-17T10:06:09;100575.00;;;19.00
12918;BMP180;6526;54.312;13.092;2022-09-17T10:08:38;100581.00;;;19.10
12918;BMP180;6526;54.312;13.092;2022-09-17T10:13:40;100577.00;;;18.90
12918;BMP180;6526;54.312;13.092;2022-09-17T10:16:20;100570.00;;;18.90
12918;BMP180;6526;54.312;13.092;2022-09-17T10:18:48;100573.00;;;19.10
12918;BMP180;6526;54.312;13.092;2022-09-17T10:21:41;100573.00;;;19.10
12918;BMP180;6526;54.312;13.092;2022-09-17T10:24:26;100583.00;;;19.30
12918;BMP180;6526;54.312;13.092;2022-09-17T10:27:05;100576.00;;;19.10
12918;BMP180;6526;54.312;13.092;2022-09-17T10:29:33;100587.00;;;18.90
12918;BMP180;6526;54.312;13.092;2022-09-17T10:31:59;100589.00;;;18.90
12918;BMP180;6526;54.312;13.092;2022-09-17T10:34:28;100577.00;;;18.80
12918;BMP180;6526;54.312;13.092;2022-09-17T10:36:55;100581.00;;;18.60
12918;BMP180;6526;54.312;13.092;2022-09-17T10:39:32;100573.00;;;18.40
12918;BMP180;6526;54.312;13.092;2022-09-17T10:42:14;100571.00;;;18.60
12918;BMP180;6526;54.312;13.092;2022-09-17T10:44:52;100546.00;;;18.80
12918;BMP180;6526;54.312;13.092;2022-09-17T10:47:25;100589.00;;;18.70
12918;BMP180;6526;54.312;13.092;2022-09-17T10:50:02;100569.00;;;18.70
12918;BMP180;6526;54.312;13.092;2022-09-17T10:52:32;100576.00;;;18.70
12918;BMP180;6526;54.312;13.092;2022-09-17T10:55:29;100574.00;;;18.90
12918;BMP180;6526;54.312;13.092;2022-09-17T10:58:20;100568.00;;;19.10
12918;BMP180;6526;54.312;13.092;2022-09-17T11:01:24;100578.00;;;19.60
12918;BMP180;6526;54.312;13.092;2022-09-17T11:04:14;100564.00;;;19.70
12918;BMP180;6526;54.312;13.092;2022-09-17T11:06:57;100573.00;;;19.90
12918;BMP180;6526;54.312;13.092;2022-09-17T11:09:40;100575.00;;;20.40
12918;BMP180;6526;54.312;13.092;2022-09-17T11:25:45;100581.00;;;20.70
12918;BMP180;6526;54.312;13.092;2022-09-17T11:33:50;100575.00;;;21.00
12918;BMP180;6526;54.312;13.092;2022-09-17T11:36:45;100588.00;;;20.90
12918;BMP180;6526;54.312;13.092;2022-09-17T11:39:21;100597.00;;;20.90
12918;BMP180;6526;54.312;13.092;2022-09-17T11:41:50;100595.00;;;20.60
12918;BMP180;6526;54.312;13.092;2022-09-17T11:44:54;100593.00;;;20.70
12918;BMP180;6526;54.312;13.092;2022-09-17T11:47:22;100603.00;;;20.60
12918;BMP180;6526;54.312;13.092;2022-09-17T11:52:34;100601.00;;;20.30
12918;BMP180;6526;54.312;13.092;2022-09-17T11:57:59;100595.00;;;20.60
12918;BMP180;6526;54.312;13.092;2022-09-17T12:00:28;100603.00;;;20.70
12918;BMP180;6526;54.312;13.092;2022-09-17T12:03:17;100595.00;;;20.50
12918;BMP180;6526;54.312;13.092;2022-09-17T12:05:51;100603.00;;;20.40
12918;BMP180;6526;54.312;13.092;2022-09-17T12:09:14;100596.00;;;20.60
12918;BMP180;6526;54.312;13.092;2022-09-17T12:11:41;100603.00;;;20.60
12918;BMP180;6526;54.312;13.092;2022-09-17T12:14:21;100608.00;;;20.40
12918;BMP180;6526;54.312;13.092;2022-09-17T12:16:51;100607.00;;;20.40
12918;BMP180;6526;54.312;13.092;2022-09-17T12:22:08;100616.00;;;20.50
12918;BMP180;6526;54.312;13.092;2022-09-17T12:24:38;100615.00;;;20.70
12918;BMP180;6526;54.312;13.092;2022-09-17T12:27:29;100618.00;;;20.70
12918;BMP180;6526;54.312;13.092;2022-09-17T12:30:07;100613.00;;;20.70
12918;BMP180;6526;54.312;13.092;2022-09-17T12:33:04;100607.00;;;20.60
12918;BMP180;6526;54.312;13.092;2022-09-17T12:40:53;100596.00;;;20.50
12918;BMP180;6526;54.312;13.092;2022-09-17T12:49:06;100601.00;;;20.60
12918;BMP180;6526;54.312;13.092;2022-09-17T12:51:51;100602.00;;;20.60
12918;BMP180;6526;54.312;13.092;2022-09-17T12:57:59;100601.00;;;20.70
12918;BMP180;6526;54.312;13.092;2022-09-17T13:00:27;100601.00;;;20.60
12918;BMP180;6526;54.312;13.092;2022-09-17T13:02:59;100595.00;;;20.70
12918;BMP180;6526;54.312;13.092;2022-09-17T13:11:31;100600.00;;;20.50
12918;BMP180;6526;54.312;13.092;2022-09-17T13:20:02;100613.00;;;19.90
12918;BMP180;6526;54.312;13.092;2022-09-17T13:22:31;100618.00;;;19.70
12918;BMP180;6526;54.312;13.092;2022-09-17T13:25:08;100608.00;;;19.50
12918;BMP180;6526;54.312;13.092;2022-09-17T13:27:34;100618.00;;;19.50
12918;BMP180;6526;54.312;13.092;2022-09-17T13:30:05;100614.00;;;19.50
12918;BMP180;6526;54.312;13.092;2022-09-17T13:40:30;100614.00;;;19.30
12918;BMP180;6526;54.312;13.092;2022-09-17T13:43:15;100602.00;;;19.20
12918;BMP180;6526;54.312;13.092;2022-09-17T13:48:30;100613.00;;;19.00
12918;BMP180;6526;54.312;13.092;2022-09-17T13:51:03;100617.00;;;19.00
12918;BMP180;6526;54.312;13.092;2022-09-17T13:53:52;100623.00;;;19.00
12918;BMP180;6526;54.312;13.092;2022-09-17T13:56:31;100620.00;;;19.00
12918;BMP180;6526;54.312;13.092;2022-09-17T13:59:08;100613.00;;;18.80
12918;BMP180;6526;54.312;13.092;2022-09-17T14:01:55;100619.00;;;18.80
12918;BMP180;6526;54.312;13.092;2022-09-17T14:04:52;100626.00;;;18.70
12918;BMP180;6526;54.312;13.092;2022-09-17T14:09:58;100636.00;;;18.70
12918;BMP180;6526;54.312;13.092;2022-09-17T14:15:35;100639.00;;;18.80
12918;BMP180;6526;54.312;13.092;2022-09-17T14:20:52;100638.00;;;18.70
12918;BMP180;6526;54.312;13.092;2022-09-17T14:23:19;100632.00;;;18.60
12918;BMP180;6526;54.312;13.092;2022-09-17T14:25:51;100628.00;;;18.40
12918;BMP180;6526;54.312;13.092;2022-09-17T14:28:55;100629.00;;;18.30
12918;BMP180;6526;54.312;13.092;2022-09-17T14:31:26;100628.00;;;18.30
12918;BMP180;6526;54.312;13.092;2022-09-17T14:33:55;100627.00;;;18.30
12918;BMP180;6526;54.312;13.092;2022-09-17T14:36:21;100626.00;;;18.40
12918;BMP180;6526;54.312;13.092;2022-09-17T14:38:51;100629.00;;;18.20
12918;BMP180;6526;54.312;13.092;2022-09-17T14:41:22;100635.00;;;18.30
12918;BMP180;6526;54.312;13.092;2022-09-17T14:44:02;100631.00;;;18.40
12918;BMP180;6526;54.312;13.092;2022-09-17T14:49:25;100616.00;;;18.20
12918;BMP180;6526;54.312;13.092;2022-09-17T14:51:56;100623.00;;;18.10
12918;BMP180;6526;54.312;13.092;2022-09-17T14:54:26;100626.00;;;18.20
12918;BMP180;6526;54.312;13.092;2022-09-17T14:57:01;100627.00;;;18.00
12918;BMP180;6526;54.312;13.092;2022-09-17T15:02:01;100640.00;;;17.90
12918;BMP180;6526;54.312;13.092;2022-09-17T15:04:28;100636.00;;;17.80
12918;BMP180;6526;54.312;13.092;2022-09-17T15:07:10;100634.00;;;17.80
12918;BMP180;6526;54.312;13.092;2022-09-17T15:09:37;100641.00;;;17.60
12918;BMP180;6526;54.312;13.092;2022-09-17T15:12:04;100649.00;;;17.60
12918;BMP180;6526;54.312;13.092;2022-09-17T15:14:35;100639.00;;;17.60
12918;BMP180;6526;54.312;13.092;2022-09-17T15:17:04;100643.00;;;17.70
12918;BMP180;6526;54.312;13.092;2022-09-17T15:19:36;100647.00;;;17.80
12918;BMP180;6526;54.312;13.092;2022-09-17T15:22:08;100644.00;;;17.70
12918;BMP180;6526;54.312;13.092;2022-09-17T15:24:55;100637.00;;;17.70
12918;BMP180;6526;54.312;13.092;2022-09-17T15:27:33;100645.00;;;17.70
12918;BMP180;6526;54.312;13.092;2022-09-17T15:32:32;100651.00;;;17.60
12918;BMP180;6526;54.312;13.092;2022-09-17T15:38:19;100640.00;;;17.40
12918;BMP180;6526;54.312;13.092;2022-09-17T15:40:46;100646.00;;;17.40
12918;BMP180;6526;54.312;13.092;2022-09-17T15:43:25;100644.00;;;17.30
12918;BMP180;6526;54.312;13.092;2022-09-17T15:45:52;100646.00;;;17.30
12918;BMP180;6526;54.312;13.092;2022-09-17T15:48:35;100644.00;;;17.00
12918;BMP180;6526;54.312;13.092;2022-09-17T15:51:04;100649.00;;;17.00
12918;BMP180;6526;54.312;13.092;2022-09-17T15:53:33;100649.00;;;16.90
12918;BMP180;6526;54.312;13.092;2022-09-17T16:08:51;100645.00;;;16.80
12918;BMP180;6526;54.312;13.092;2022-09-17T16:11:19;100635.00;;;16.70
12918;BMP180;6526;54.312;13.092;2022-09-17T16:13:46;100636.00;;;16.60
12918;BMP180;6526;54.312;13.092;2022-09-17T16:16:21;100649.00;;;16.60
12918;BMP180;6526;54.312;13.092;2022-09-17T16:18:48;100645.00;;;16.60
12918;BMP180;6526;54.312;13.092;2022-09-17T16:21:15;100638.00;;;16.60
12918;BMP180;6526;54.312;13.092;2022-09-17T16:23:42;100640.00;;;16.60
12918;BMP180;6526;54.312;13.092;2022-09-17T16:26:15;100650.00;;;16.60
12918;BMP180;6526;54.312;13.092;2022-09-17T16:28:46;100653.00;;;16.50
12918;BMP180;6526;54.312;13.092;2022-09-17T16:31:14;100658.00;;;16.70
12918;BMP180;6526;54.312;13.092;2022-09-17T16:33:40;100649.00;;;16.50
12918;BMP180;6526;54.312;13.092;2022-09-17T16:36:06;100653.00;;;16.40
12918;BMP180;6526;54.312;13.092;2022-09-17T16:38:33;100649.00;;;16.40
12918;BMP180;6526;54.312;13.092;2022-09-17T16:40:59;100659.00;;;16.40
12918;BMP180;6526;54.312;13.092;2022-09-17T16:43:25;100646.00;;;16.50
12918;BMP180;6526;54.312;13.092;2022-09-17T16:46:02;100655.00;;;16.50
12918;BMP180;6526;54.312;13.092;2022-09-17T16:48:28;100645.00;;;16.50
12918;BMP180;6526;54.312;13.092;2022-09-17T16:50:54;100655.00;;;16.50
12918;BMP180;6526;54.312;13.092;2022-09-17T16:53:20;100653.00;;;16.50
12918;BMP180;6526;54.312;13.092;2022-09-17T16:55:46;100662.00;;;16.60